Time;durP1;ratioP1;P1;durP2;ratioP2;P2;SDS_P1;SDS_P2;PMS_P1;PMS_P2;Temp;Humidity;BMP_temperature;BMP_pressure;BME280_temperature;BME280_humidity;BME280_pressure;Samples;Min_cycle;Max_cycle;Signal;HPM_P1;HPM_P2
2023/09/09 00:00:48;;;;;;;5.55;3.97;;;;;;;23.06;46.79;93659.81;4873104;29;20104;-92
2023/09/09 00:03:13;;;;;;;4.90;3.50;;;;;;;23.07;46.68;93655.78;4871817;29;20047;-92
2023/09/09 00:05:39;;;;;;;6.00;4.10;;;;;;;23.06;46.58;93652.28;4874077;29;20314;-92
2023/09/09 00:08:07;;;;;;;6.35;3.78;;;;;;;23.05;46.93;93648.03;4883949;29;20554;-92
2023/09/09 00:10:35;;;;;;;7.07;4.00;;;;;;;23.04;46.65;93649.31;4810538;29;20058;-92
2023/09/09 00:13:03;;;;;;;5.80;3.75;;;;;;;23.05;46.62;93658.34;4777539;29;20058;-92
2023/09/09 00:15:30;;;;;;;7.15;3.80;;;;;;;23.08;46.58;93657.25;4789073;29;20045;-92
2023/09/09 00:17:56;;;;;;;6.13;3.90;;;;;;;23.06;46.79;93657.06;4801161;29;20055;-93
2023/09/09 00:20:33;;;;;;;5.85;3.92;;;;;;;23.05;46.55;93659.06;4764021;29;20624;-93
2023/09/09 00:23:07;;;;;;;7.35;4.28;;;;;;;23.04;46.75;93657.59;4780880;29;20050;-92
2023/09/09 00:25:36;;;;;;;5.35;3.88;;;;;;;23.04;46.87;93657.59;4793720;29;20039;-92
2023/09/09 00:28:02;;;;;;;6.60;3.70;;;;;;;23.04;46.71;93659.59;4786624;29;20123;-93
2023/09/09 00:30:28;;;;;;;6.63;4.25;;;;;;;23.05;46.74;93661.09;4735327;30;20099;-93
2023/09/09 00:32:54;;;;;;;5.13;3.78;;;;;;;23.04;46.50;93665.13;4722590;30;20382;-92
2023/09/09 00:35:20;;;;;;;4.45;3.67;;;;;;;23.06;46.62;93644.00;4736108;30;20059;-93
2023/09/09 00:37:46;;;;;;;5.30;4.03;;;;;;;23.05;46.64;93652.81;4726306;30;20056;-93
2023/09/09 00:40:12;;;;;;;4.65;3.65;;;;;;;23.03;46.78;93650.59;4705194;30;20178;-92
2023/09/09 00:42:38;;;;;;;5.57;3.67;;;;;;;23.03;46.63;93652.59;4721323;30;20061;-91
2023/09/09 00:45:06;;;;;;;6.82;4.20;;;;;;;23.02;46.85;93643.59;4730738;30;20048;-92
2023/09/09 00:47:32;;;;;;;5.43;3.60;;;;;;;23.04;46.69;93654.84;4734568;30;20058;-92
2023/09/09 00:50:03;;;;;;;6.40;3.63;;;;;;;23.04;46.72;93651.34;4774299;30;20063;-93
2023/09/09 00:52:31;;;;;;;6.15;3.58;;;;;;;23.03;46.57;93645.06;4759669;30;20112;-92
2023/09/09 00:54:58;;;;;;;6.15;4.00;;;;;;;23.03;46.65;93649.84;4774918;29;20546;-92
2023/09/09 00:57:24;;;;;;;5.93;3.83;;;;;;;23.01;46.72;93650.38;4757015;30;20110;-93
2023/09/09 00:59:49;;;;;;;4.72;3.85;;;;;;;23.02;46.75;93640.84;4781737;29;20055;-92
2023/09/09 01:02:14;;;;;;;5.65;3.83;;;;;;;23.02;46.54;93645.63;4775412;29;20043;-92
2023/09/09 01:04:49;;;;;;;4.97;4.10;;;;;;;23.01;46.73;93642.13;4779476;29;20055;-91
2023/09/09 01:07:15;;;;;;;4.13;3.10;;;;;;;23.00;46.67;93639.88;4804634;29;20052;-92
2023/09/09 01:09:41;;;;;;;5.35;3.80;;;;;;;22.99;46.72;93638.41;4833935;29;20512;-93
2023/09/09 01:12:11;;;;;;;5.80;3.53;;;;;;;23.00;46.88;93639.88;4814443;29;20075;-92
2023/09/09 01:14:39;;;;;;;5.00;4.15;;;;;;;23.00;46.58;93637.88;4814313;29;20037;-93
2023/09/09 01:17:05;;;;;;;5.72;3.85;;;;;;;23.00;46.72;93637.13;4826125;29;20061;-93
2023/09/09 01:19:31;;;;;;;3.85;3.30;;;;;;;22.99;46.88;93635.66;4813228;29;20057;-92
2023/09/09 01:22:06;;;;;;;5.63;3.80;;;;;;;23.01;46.66;93638.63;4836237;29;20041;-93
2023/09/09 01:24:33;;;;;;;5.07;3.80;;;;;;;23.00;46.82;93632.34;4825399;29;20045;-92
2023/09/09 01:26:58;;;;;;;5.53;3.60;;;;;;;22.98;46.85;93625.91;4828345;29;20566;-92
2023/09/09 01:29:24;;;;;;;6.00;3.80;;;;;;;23.00;46.58;93631.63;4823326;29;20041;-92
2023/09/09 01:31:51;;;;;;;5.22;3.83;;;;;;;23.00;46.55;93626.84;4849387;29;20053;-91
2023/09/09 01:34:17;;;;;;;6.25;3.67;;;;;;;22.99;46.66;93633.63;4823088;29;20041;-93
2023/09/09 01:36:42;;;;;;;3.97;3.47;;;;;;;23.00;46.58;93621.31;4830787;29;20049;-92
2023/09/09 01:39:10;;;;;;;5.47;3.40;;;;;;;22.98;46.67;93626.63;4848120;29;20547;-93
2023/09/09 01:41:35;;;;;;;4.55;3.15;;;;;;;22.98;46.66;93626.63;4847178;29;20067;-91
2023/09/09 01:44:00;;;;;;;6.45;3.80;;;;;;;22.96;47.01;93633.97;4845621;29;20037;-92
2023/09/09 01:46:26;;;;;;;5.28;3.17;;;;;;;22.97;46.66;93630.66;4829842;29;20177;-92
2023/09/09 01:48:51;;;;;;;5.13;3.60;;;;;;;22.97;46.73;93625.16;4847253;29;20041;-92
2023/09/09 01:51:17;;;;;;;6.85;4.07;;;;;;;22.97;46.64;93627.16;4858393;29;20057;-95
2023/09/09 01:53:42;;;;;;;5.03;3.72;;;;;;;22.97;46.93;93630.66;4856633;29;20047;-93
2023/09/09 01:56:10;;;;;;;4.90;3.75;;;;;;;22.97;46.93;93624.41;4866216;29;20045;-92
2023/09/09 01:58:35;;;;;;;5.35;3.60;;;;;;;22.97;46.67;93622.41;4883045;29;20122;-92
2023/09/09 02:01:01;;;;;;;5.13;3.75;;;;;;;22.96;46.73;93622.94;4867266;29;20048;-92
2023/09/09 02:03:28;;;;;;;6.05;3.95;;;;;;;22.95;46.65;93629.75;4891387;29;20047;-92
2023/09/09 02:05:53;;;;;;;5.20;3.63;;;;;;;22.98;46.72;93617.63;4881700;29;20108;-92
2023/09/09 02:08:19;;;;;;;3.58;3.22;;;;;;;22.98;46.80;93626.63;4856704;29;20492;-92
2023/09/09 02:10:49;;;;;;;5.53;3.40;;;;;;;22.97;46.55;93629.94;4855454;29;20136;-92
2023/09/09 02:13:16;;;;;;;5.50;3.97;;;;;;;22.96;46.68;93626.44;4873495;29;20051;-91
2023/09/09 02:15:44;;;;;;;4.68;3.40;;;;;;;22.95;47.02;93629.75;4862556;29;20048;-92
2023/09/09 02:18:20;;;;;;;5.07;3.58;;;;;;;22.93;46.76;93624.03;4853529;29;20055;-93
2023/09/09 02:20:47;;;;;;;6.45;3.55;;;;;;;22.94;46.74;93625.50;4864186;29;20037;-92
2023/09/09 02:23:12;;;;;;;4.32;3.38;;;;;;;22.93;46.89;93627.53;4854732;29;20123;-92
2023/09/09 02:25:38;;;;;;;4.50;3.53;;;;;;;22.96;46.79;93628.44;4829816;29;20045;-92
2023/09/09 02:28:03;;;;;;;3.58;3.10;;;;;;;22.95;46.67;93624.94;4852505;29;20044;-93
2023/09/09 02:30:30;;;;;;;5.13;3.58;;;;;;;22.96;46.54;93623.66;4848323;29;20057;-94
2023/09/09 02:32:55;;;;;;;5.65;3.50;;;;;;;22.94;46.70;93625.50;4844220;29;20037;-92
2023/09/09 02:35:21;;;;;;;5.25;3.50;;;;;;;22.94;46.82;93631.75;4836303;29;20048;-92
2023/09/09 02:37:46;;;;;;;5.43;3.95;;;;;;;22.95;46.67;93632.50;4822724;29;20113;-92
2023/09/09 02:40:12;;;;;;;3.97;3.22;;;;;;;22.95;46.85;93627.00;4825288;29;20048;-93
2023/09/09 02:42:39;;;;;;;4.30;3.10;;;;;;;22.95;46.94;93624.22;4862348;29;20041;-92
2023/09/09 02:45:05;;;;;;;3.58;3.13;;;;;;;22.96;46.81;93623.66;4859422;29;20602;-93
2023/09/09 02:47:30;;;;;;;4.25;3.55;;;;;;;22.93;46.77;93619.25;4848755;29;20045;-92
2023/09/09 02:49:57;;;;;;;3.60;2.97;;;;;;;22.92;46.78;93617.03;4851189;29;20054;-92
2023/09/09 02:52:22;;;;;;;5.05;3.97;;;;;;;22.92;46.63;93617.03;4844961;29;20093;-92
2023/09/09 02:54:48;;;;;;;5.78;3.75;;;;;;;22.93;46.78;93613.75;4877896;29;20095;-92
2023/09/09 02:57:13;;;;;;;5.50;3.67;;;;;;;22.92;46.72;93614.28;4831355;29;20055;-92
2023/09/09 02:59:40;;;;;;;4.25;3.63;;;;;;;22.94;46.69;93620.00;4844208;29;20045;-92
2023/09/09 03:02:06;;;;;;;4.78;3.50;;;;;;;22.94;46.70;93611.72;4879702;29;20606;-93
2023/09/09 03:04:34;;;;;;;5.47;3.80;;;;;;;22.92;46.75;93617.78;4897664;29;20044;-92
2023/09/09 03:07:00;;;;;;;5.05;3.72;;;;;;;22.89;46.79;93611.31;4868595;29;20040;-93
2023/09/09 03:09:29;;;;;;;7.13;3.50;;;;;;;22.94;46.61;93615.22;4838921;29;20114;-92
2023/09/09 03:11:55;;;;;;;5.90;3.72;;;;;;;22.91;46.65;93613.53;4852682;29;20049;-91
2023/09/09 03:14:21;;;;;;;5.82;3.50;;;;;;;22.91;46.67;93616.28;4836449;29;20185;-93
2023/09/09 03:16:46;;;;;;;5.32;3.85;;;;;;;22.90;46.83;93612.06;4870865;29;20053;-93
2023/09/09 03:19:12;;;;;;;5.97;3.83;;;;;;;22.92;46.57;93604.00;4855402;29;20633;-92
2023/09/09 03:21:37;;;;;;;5.00;3.22;;;;;;;22.91;46.65;93605.25;4865363;29;20048;-92
2023/09/09 03:24:04;;;;;;;6.03;3.75;;;;;;;22.91;46.59;93599.75;4864112;29;20041;-92
2023/09/09 03:26:32;;;;;;;4.15;2.92;;;;;;;22.91;46.59;93608.03;4869831;29;20081;-92
2023/09/09 03:28:59;;;;;;;6.28;3.80;;;;;;;22.89;46.88;93605.78;4863515;29;20040;-93
2023/09/09 03:31:24;;;;;;;4.35;3.50;;;;;;;22.89;46.76;93599.53;4862738;29;20185;-93
2023/09/09 03:33:51;;;;;;;5.72;3.45;;;;;;;22.88;46.81;93607.06;4855612;29;20041;-92
2023/09/09 03:36:16;;;;;;;4.63;3.45;;;;;;;22.90;46.76;93614.81;4851859;29;20139;-92
2023/09/09 03:38:42;;;;;;;3.92;3.17;;;;;;;22.88;46.65;93612.59;4858209;29;20100;-91
2023/09/09 03:41:09;;;;;;;3.70;3.20;;;;;;;22.87;46.60;93608.34;4870711;29;20099;-93
2023/09/09 03:43:38;;;;;;;5.28;3.30;;;;;;;22.88;46.85;93609.81;4872032;29;20040;-91
2023/09/09 03:46:03;;;;;;;4.00;3.03;;;;;;;22.88;46.78;93617.34;4877773;29;20044;-91
2023/09/09 03:48:29;;;;;;;4.32;3.30;;;;;;;22.89;46.88;93618.84;4886002;29;20044;-92
2023/09/09 03:51:01;;;;;;;4.53;2.85;;;;;;;22.88;46.91;93611.84;4865995;29;20455;-92
2023/09/09 03:53:27;;;;;;;4.10;3.55;;;;;;;22.87;46.72;93613.13;4853417;29;20444;-92
2023/09/09 03:56:00;;;;;;;5.15;3.33;;;;;;;22.88;46.75;93618.09;4851550;29;20034;-91
2023/09/09 03:58:27;;;;;;;5.18;3.50;;;;;;;22.88;46.65;93611.84;4849980;29;20045;-93
2023/09/09 04:01:13;;;;;;;6.18;3.58;;;;;;;22.85;46.93;93610.16;4845348;29;20038;-92
2023/09/09 04:03:38;;;;;;;4.88;3.42;;;;;;;22.87;46.87;93604.84;4829672;29;20038;-92
2023/09/09 04:06:10;;;;;;;6.10;3.72;;;;;;;22.85;46.68;93612.91;4835342;29;20131;-92
2023/09/09 04:08:37;;;;;;;4.18;2.97;;;;;;;22.87;46.55;93602.09;4863429;29;20045;-92
2023/09/09 04:11:03;;;;;;;5.10;3.30;;;;;;;22.84;46.71;93606.66;4839239;29;20267;-95
2023/09/09 04:13:28;;;;;;;4.85;3.55;;;;;;;22.84;46.77;93611.44;4851673;29;20045;-93
2023/09/09 04:15:54;;;;;;;4.53;3.15;;;;;;;22.84;46.66;93606.66;4860599;29;20091;-92
2023/09/09 04:18:21;;;;;;;5.72;3.42;;;;;;;22.83;46.79;93613.44;4845576;29;20045;-92
2023/09/09 04:20:46;;;;;;;3.70;3.40;;;;;;;22.85;46.67;93618.41;4860499;29;20048;-93
2023/09/09 04:23:12;;;;;;;3.97;3.45;;;;;;;22.84;46.77;93617.69;4845276;29;20045;-93
2023/09/09 04:25:39;;;;;;;5.03;3.20;;;;;;;22.82;46.82;93617.47;4846781;29;20049;-92
2023/09/09 04:28:05;;;;;;;5.57;3.50;;;;;;;22.82;46.79;93609.22;4880609;29;20453;-92
2023/09/09 04:30:31;;;;;;;4.32;3.42;;;;;;;22.86;46.72;93619.91;4801147;29;2021675;-93
2023/09/09 04:32:58;;;;;;;5.28;3.47;;;;;;;22.86;46.58;93615.13;4853009;29;20507;-92
2023/09/09 04:35:23;;;;;;;3.83;3.08;;;;;;;22.85;46.66;93615.66;4864211;29;20043;-92
2023/09/09 04:37:50;;;;;;;5.57;3.60;;;;;;;22.82;46.79;93611.97;4870250;29;20048;-92
2023/09/09 04:40:16;;;;;;;3.80;3.15;;;;;;;22.82;46.87;93617.47;4888338;29;20043;-92
2023/09/09 04:42:42;;;;;;;3.75;3.22;;;;;;;22.83;46.86;93613.44;4884947;29;20052;-92
2023/09/09 04:45:11;;;;;;;5.00;3.65;;;;;;;22.83;46.57;93618.22;4869752;29;20052;-92
2023/09/09 04:47:37;;;;;;;3.78;2.92;;;;;;;22.83;46.68;93616.19;4888508;29;20047;-92
2023/09/09 04:50:03;;;;;;;4.13;3.25;;;;;;;22.83;46.66;93616.19;4860101;29;20044;-92
2023/09/09 04:52:29;;;;;;;3.83;3.05;;;;;;;22.84;46.74;93609.41;4854358;29;20048;-93
2023/09/09 04:54:55;;;;;;;4.68;3.45;;;;;;;22.83;46.62;93607.19;4836732;29;20056;-91
2023/09/09 04:57:22;;;;;;;3.85;3.17;;;;;;;22.84;46.46;93617.69;4849600;29;20046;-93
2023/09/09 04:59:47;;;;;;;5.30;3.50;;;;;;;22.84;46.66;93620.44;4865022;29;20484;-94
2023/09/09 05:02:13;;;;;;;4.82;2.83;;;;;;;22.87;46.44;93621.38;4855576;29;20049;-92
2023/09/09 05:04:39;;;;;;;5.18;3.20;;;;;;;22.87;46.73;93624.16;4847034;29;20048;-93
2023/09/09 05:07:04;;;;;;;4.80;3.35;;;;;;;22.86;46.51;93619.91;4845304;29;20050;-93
2023/09/09 05:09:30;;;;;;;4.40;3.03;;;;;;;22.87;46.42;93622.13;4847525;29;20046;-93
2023/09/09 05:11:57;;;;;;;4.05;3.30;;;;;;;22.88;46.55;93617.34;4852883;29;20045;-92
2023/09/09 05:14:23;;;;;;;3.72;3.25;;;;;;;22.90;46.38;93612.06;4846765;29;20050;-92
2023/09/09 05:16:48;;;;;;;4.47;3.40;;;;;;;22.90;46.41;93621.06;4878268;29;20061;-93
2023/09/09 05:19:14;;;;;;;5.63;3.50;;;;;;;22.92;46.37;93626.03;4847017;29;20045;-92
2023/09/09 05:21:39;;;;;;;4.70;3.30;;;;;;;22.91;46.47;93630.06;4869942;29;20049;-92
2023/09/09 05:24:05;;;;;;;4.85;3.13;;;;;;;22.93;46.53;93626.78;4814424;29;20056;-94
2023/09/09 05:26:31;;;;;;;4.97;3.15;;;;;;;22.93;46.32;93630.28;4793974;29;20070;-92
2023/09/09 05:29:01;;;;;;;4.80;3.75;;;;;;;22.96;46.29;93625.69;4742774;30;20078;-94
2023/09/09 05:31:26;;;;;;;4.60;3.23;;;;;;;22.96;46.39;93631.19;4785380;29;20118;-93
2023/09/09 05:33:52;;;;;;;5.15;3.25;;;;;;;22.97;46.28;93625.16;4775735;29;20108;-93
2023/09/09 05:36:17;;;;;;;4.35;3.22;;;;;;;22.99;46.38;93628.13;4759860;29;20440;-91
2023/09/09 05:38:42;;;;;;;3.47;2.80;;;;;;;23.01;46.38;93633.84;4761243;29;20051;-93
2023/09/09 05:41:08;;;;;;;4.10;3.08;;;;;;;23.02;46.15;93634.59;4768204;29;20051;-92
2023/09/09 05:43:33;;;;;;;4.65;3.40;;;;;;;23.02;46.40;93629.81;4771348;30;20059;-94
2023/09/09 05:46:02;;;;;;;4.10;2.83;;;;;;;23.03;45.94;93641.56;4751923;30;20059;-92
2023/09/09 05:48:27;;;;;;;4.32;3.28;;;;;;;23.06;46.24;93641.25;4751950;30;20113;-92
2023/09/09 05:50:55;;;;;;;5.72;3.45;;;;;;;23.05;46.22;93639.03;4754908;30;20055;-91
2023/09/09 05:53:21;;;;;;;4.18;2.95;;;;;;;23.06;46.13;93632.25;4752940;30;20054;-92
2023/09/09 05:55:46;;;;;;;3.65;2.60;;;;;;;23.07;46.20;93631.69;4783899;29;20054;-92
2023/09/09 05:58:12;;;;;;;3.60;2.42;;;;;;;23.09;45.92;93637.44;4781011;29;20215;-93
2023/09/09 06:00:38;;;;;;;3.92;2.90;;;;;;;23.12;46.17;93641.13;4790008;29;20500;-91
2023/09/09 06:03:04;;;;;;;3.40;2.83;;;;;;;23.12;46.15;93643.88;4782050;29;20053;-92
2023/09/09 06:05:29;;;;;;;3.15;2.63;;;;;;;23.14;45.91;93644.84;4827881;29;20049;-92
2023/09/09 06:07:56;;;;;;;2.97;2.22;;;;;;;23.15;46.16;93645.56;4831471;29;20437;-92
2023/09/09 06:10:24;;;;;;;3.90;2.28;;;;;;;23.16;46.13;93636.03;4838674;29;20045;-92
2023/09/09 06:12:49;;;;;;;3.42;2.85;;;;;;;23.17;45.96;93640.97;4853187;29;20095;-92
2023/09/09 06:15:15;;;;;;;3.70;3.00;;;;;;;23.18;45.88;93636.94;4881651;29;20044;-91
2023/09/09 06:17:41;;;;;;;3.75;3.10;;;;;;;23.21;46.05;93646.16;4867224;29;20080;-93
2023/09/09 06:20:07;;;;;;;3.20;2.60;;;;;;;23.21;45.80;93646.16;4873937;29;20059;-92
2023/09/09 06:22:34;;;;;;;3.85;2.75;;;;;;;23.24;46.06;93650.63;4841093;29;20049;-92
2023/09/09 06:25:01;;;;;;;4.15;2.72;;;;;;;23.26;46.02;93656.34;4805159;29;20054;-94
2023/09/09 06:27:27;;;;;;;4.93;3.10;;;;;;;23.28;45.87;93658.56;4824847;29;20567;-93
2023/09/09 06:29:53;;;;;;;3.00;2.22;;;;;;;23.30;45.99;93653.25;4810272;29;20065;-92
2023/09/09 06:32:18;;;;;;;2.95;2.28;;;;;;;23.31;45.86;93665.78;4834661;29;20053;-94
2023/09/09 06:34:44;;;;;;;3.50;2.35;;;;;;;23.32;45.74;93664.50;4811146;29;20492;-92
2023/09/09 06:37:10;;;;;;;4.45;2.70;;;;;;;23.34;45.80;93670.97;4833388;29;20065;-93
2023/09/09 06:39:36;;;;;;;6.65;2.78;;;;;;;23.36;45.86;93660.13;4795333;29;20425;-92
2023/09/09 06:42:01;;;;;;;3.70;2.80;;;;;;;23.37;45.77;93669.88;4820232;29;20064;-92
2023/09/09 06:44:27;;;;;;;4.80;2.85;;;;;;;23.38;45.52;93671.38;4814895;29;20046;-93
2023/09/09 06:46:52;;;;;;;2.92;2.40;;;;;;;23.40;45.78;93674.31;4814680;29;20050;-92
2023/09/09 06:49:18;;;;;;;4.32;2.97;;;;;;;23.41;45.71;93658.50;4793893;29;20046;-92
2023/09/09 06:51:45;;;;;;;3.38;2.65;;;;;;;23.44;45.73;93677.47;4799820;29;20050;-92
2023/09/09 06:54:10;;;;;;;4.28;3.17;;;;;;;23.46;45.71;93683.19;4779820;29;20890;-92
2023/09/09 06:56:36;;;;;;;3.95;2.92;;;;;;;23.49;45.84;93678.63;4793368;29;20061;-92
2023/09/09 06:59:03;;;;;;;2.95;2.65;;;;;;;23.51;45.54;93681.59;4783884;29;20103;-92
2023/09/09 07:01:35;;;;;;;4.80;3.28;;;;;;;23.49;45.72;93684.88;4835250;29;20053;-92
2023/09/09 07:04:01;;;;;;;3.72;2.88;;;;;;;23.53;45.80;93679.06;4860872;29;20052;-92
2023/09/09 07:06:29;;;;;;;5.00;2.80;;;;;;;23.53;45.58;93677.03;4836125;29;20511;-92
2023/09/09 07:08:55;;;;;;;4.50;3.38;;;;;;;23.56;45.56;93675.22;4853662;29;20057;-92
2023/09/09 07:11:20;;;;;;;4.75;3.40;;;;;;;23.55;45.76;93674.50;4853586;29;20414;-92
2023/09/09 07:13:45;;;;;;;4.47;3.17;;;;;;;23.56;45.54;93678.00;4812189;29;20050;-91
2023/09/09 07:16:11;;;;;;;4.05;3.10;;;;;;;23.59;45.42;93685.19;4831276;29;20531;-92
2023/09/09 07:18:38;;;;;;;4.45;3.10;;;;;;;23.58;45.55;93687.22;4847385;29;20053;-92
2023/09/09 07:21:04;;;;;;;4.40;3.08;;;;;;;23.61;45.50;93681.88;4880604;29;20070;-93
2023/09/09 07:23:32;;;;;;;4.07;2.95;;;;;;;23.65;45.23;93683.03;4856146;29;20044;-92
2023/09/09 07:26:01;;;;;;;5.40;3.63;;;;;;;23.63;45.40;93691.09;4872214;29;20083;-91
2023/09/09 07:28:28;;;;;;;6.15;3.28;;;;;;;23.61;45.43;93685.38;4904632;29;20048;-93
2023/09/09 07:30:53;;;;;;;6.35;3.40;;;;;;;23.65;45.35;93690.56;4880123;29;20045;-92
2023/09/09 07:33:19;;;;;;;5.80;2.95;;;;;;;23.63;45.49;93687.59;4849757;29;20052;-92
2023/09/09 07:35:53;;;;;;;4.47;3.08;;;;;;;23.63;45.58;93691.09;4858968;29;20045;-92
2023/09/09 07:38:18;;;;;;;5.88;3.38;;;;;;;23.63;45.34;93696.63;4863686;29;20041;-93
2023/09/09 07:40:46;;;;;;;3.83;2.72;;;;;;;23.65;45.45;93701.59;4841339;29;20049;-93
2023/09/09 07:43:11;;;;;;;3.58;2.40;;;;;;;23.68;45.56;93698.50;4826097;29;20046;-93
2023/09/09 07:45:39;;;;;;;5.95;3.05;;;;;;;23.63;45.65;93690.34;4814809;29;20094;-93
2023/09/09 07:48:26;;;;;;;5.50;3.08;;;;;;;23.62;45.60;93692.38;4828477;29;20052;-93
2023/09/09 07:50:52;;;;;;;4.10;3.03;;;;;;;23.67;45.64;93699.78;4827146;29;20056;-92
2023/09/09 07:53:18;;;;;;;4.28;3.50;;;;;;;23.71;45.44;93707.75;4813210;29;20407;-94
2023/09/09 07:55:47;;;;;;;6.93;3.20;;;;;;;23.71;45.51;93702.22;4811317;29;20072;-93
2023/09/09 07:58:13;;;;;;;4.45;3.28;;;;;;;23.73;45.48;93702.41;4780801;29;20043;-93
2023/09/09 08:00:45;;;;;;;7.22;3.40;;;;;;;23.71;45.50;93700.19;4819132;29;20046;-93
2023/09/09 08:03:14;;;;;;;3.58;2.75;;;;;;;23.73;45.57;93710.69;4834235;23;20073;-93
2023/09/09 08:05:41;;;;;;;5.43;3.42;;;;;;;23.76;45.86;93706.88;4825477;29;20056;-94
2023/09/09 08:08:07;;;;;;;7.43;3.10;;;;;;;23.74;45.66;93695.63;4816934;29;20042;-93
2023/09/09 08:10:36;;;;;;;4.70;3.00;;;;;;;23.72;45.59;93700.94;4805266;29;20037;-93
2023/09/09 08:13:02;;;;;;;4.97;3.72;;;;;;;23.74;45.60;93698.38;4835234;29;20435;-93
2023/09/09 08:15:31;;;;;;;7.43;3.13;;;;;;;23.74;45.61;93704.66;4828272;29;20073;-93
2023/09/09 08:17:57;;;;;;;4.03;2.70;;;;;;;23.75;45.52;93694.34;4815497;29;20548;-93
2023/09/09 08:20:23;;;;;;;5.72;2.88;;;;;;;23.77;45.44;93695.28;4796954;29;20059;-94
2023/09/09 08:22:52;;;;;;;4.18;3.17;;;;;;;23.76;45.37;93701.34;4798620;29;20080;-92
2023/09/09 08:25:17;;;;;;;4.38;3.42;;;;;;;23.76;45.68;93695.81;4819458;29;20046;-92
2023/09/09 08:27:45;;;;;;;5.18;3.35;;;;;;;23.73;45.54;93694.13;4798450;29;20054;-93
2023/09/09 08:30:15;;;;;;;4.78;3.42;;;;;;;23.73;45.60;93699.66;4756708;29;20048;-93
2023/09/09 08:32:47;;;;;;;3.97;3.53;;;;;;;23.74;45.72;93701.16;4771999;29;20055;-93
2023/09/09 08:35:16;;;;;;;8.93;3.35;;;;;;;23.70;46.11;93698.72;4858963;23;20295;-93
2023/09/09 08:37:41;;;;;;;8.55;3.55;;;;;;;23.72;45.82;93707.19;4822257;29;20053;-93
2023/09/09 08:40:09;;;;;;;4.70;3.50;;;;;;;23.69;45.91;93697.22;4845696;29;20041;-93
2023/09/09 08:42:40;;;;;;;5.03;3.15;;;;;;;23.69;45.96;93702.00;4817458;29;20049;-93
2023/09/09 08:45:13;;;;;;;5.40;3.20;;;;;;;23.70;45.93;93703.50;4842431;29;20053;-94
2023/09/09 08:47:40;;;;;;;6.53;3.28;;;;;;;23.71;45.77;93707.75;4828622;29;20045;-94
2023/09/09 08:50:06;;;;;;;5.60;3.55;;;;;;;23.72;45.83;93709.22;4871405;23;20071;-94
2023/09/09 08:52:32;;;;;;;7.30;3.78;;;;;;;23.71;46.03;93710.50;4839756;29;20045;-93
2023/09/09 08:54:58;;;;;;;5.65;3.88;;;;;;;23.71;45.96;93710.50;4888678;23;20049;-93
2023/09/09 08:57:25;;;;;;;5.28;3.60;;;;;;;23.73;45.80;93710.69;4875641;23;20109;-94
2023/09/09 08:59:50;;;;;;;5.85;3.17;;;;;;;23.72;46.02;93717.50;4824544;29;20041;-94
2023/09/09 09:02:18;;;;;;;5.43;3.25;;;;;;;23.71;45.77;93716.75;4773436;30;20051;-93
2023/09/09 09:04:45;;;;;;;6.30;3.63;;;;;;;23.72;45.78;93720.25;4728053;30;20052;-93
2023/09/09 09:07:11;;;;;;;5.75;4.05;;;;;;;23.72;45.93;93717.50;4710887;30;20109;-93
2023/09/09 09:09:41;;;;;;;5.32;3.20;;;;;;;23.71;46.03;93722.28;4728661;30;20127;-93
2023/09/09 09:12:08;;;;;;;4.13;3.30;;;;;;;23.74;46.01;93723.22;4753195;30;20036;-94
2023/09/09 09:14:34;;;;;;;7.65;3.53;;;;;;;23.74;46.09;93723.97;4733506;30;20048;-93
2023/09/09 09:17:00;;;;;;;3.78;3.28;;;;;;;23.73;46.09;93722.50;4699978;30;20201;-93
2023/09/09 09:19:38;;;;;;;4.80;3.47;;;;;;;23.71;45.95;93725.03;4725193;30;20048;-94
2023/09/09 09:22:04;;;;;;;4.00;3.28;;;;;;;23.71;46.16;93722.28;4729046;30;20048;-94
2023/09/09 09:24:30;;;;;;;5.47;4.38;;;;;;;23.71;46.11;93719.53;4720349;30;20509;-94
2023/09/09 09:26:56;;;;;;;5.53;3.65;;;;;;;23.71;46.10;93713.25;4735029;30;20059;-94
2023/09/09 09:29:22;;;;;;;5.95;3.75;;;;;;;23.70;46.00;93720.81;4739645;30;20040;-93
2023/09/09 09:31:56;;;;;;;5.15;3.80;;;;;;;23.70;46.10;93717.28;4742821;30;20610;-94
2023/09/09 09:34:34;;;;;;;7.35;3.60;;;;;;;23.69;46.06;93716.56;4741885;30;20044;-94
2023/09/09 09:37:14;;;;;;;4.05;3.33;;;;;;;23.68;46.13;93714.34;4769696;29;20054;-93
2023/09/09 09:39:39;;;;;;;4.10;2.95;;;;;;;23.68;46.11;93717.09;4778508;29;20042;-94
2023/09/09 09:42:10;;;;;;;4.97;3.25;;;;;;;23.67;46.16;93704.56;4786428;29;20039;-94
2023/09/09 09:44:38;;;;;;;4.83;3.40;;;;;;;23.67;46.16;93708.06;4788255;29;20055;-94
2023/09/09 09:47:10;;;;;;;4.75;3.30;;;;;;;23.67;46.16;93715.59;4767478;30;20296;-93
2023/09/09 09:49:44;;;;;;;7.63;3.65;;;;;;;23.67;46.44;93707.34;4745899;30;20126;-93
2023/09/09 09:52:11;;;;;;;8.15;3.83;;;;;;;23.66;46.14;93711.38;4735298;30;20060;-94
2023/09/09 09:54:43;;;;;;;6.60;4.00;;;;;;;23.67;46.36;93707.34;4744261;29;20028;-95
2023/09/09 09:57:10;;;;;;;6.90;4.40;;;;;;;23.67;46.35;93710.09;4732179;30;20056;-93
2023/09/09 09:59:36;;;;;;;8.02;4.18;;;;;;;23.65;46.44;93715.41;4824602;23;20067;-94
2023/09/09 10:02:10;;;;;;;8.48;4.40;;;;;;;23.64;46.34;93722.19;4870945;29;20546;-94
2023/09/09 10:04:44;;;;;;;5.70;3.90;;;;;;;23.63;46.28;93715.19;4885850;29;20507;-93
2023/09/09 10:10:07;;;;;;;6.85;3.95;;;;;;;23.62;46.39;93708.94;4878356;29;20047;-93
2023/09/09 10:12:59;;;;;;;4.50;3.60;;;;;;;23.63;46.54;93707.66;4845163;29;20040;-94
2023/09/09 10:15:50;;;;;;;6.95;3.53;;;;;;;23.63;46.67;93709.69;4881662;23;20045;-93
2023/09/09 10:18:16;;;;;;;9.48;4.82;;;;;;;23.65;46.94;93712.66;4836223;29;20058;-94
2023/09/09 10:20:43;;;;;;;7.28;4.43;;;;;;;23.65;46.55;93704.38;4834452;29;20472;-94
2023/09/09 10:23:09;;;;;;;9.40;4.57;;;;;;;23.65;46.55;93710.63;4850243;29;20207;-93
2023/09/09 10:25:55;;;;;;;7.20;4.53;;;;;;;23.64;46.81;93706.38;4827264;29;20077;-93
2023/09/09 10:28:26;;;;;;;6.65;4.53;;;;;;;23.65;46.58;93710.63;4834114;29;20538;-94
2023/09/09 10:31:01;;;;;;;5.00;3.72;;;;;;;23.66;46.63;93697.56;4847528;24;20081;-93
2023/09/09 10:33:28;;;;;;;7.07;4.57;;;;;;;23.64;46.44;93702.88;4856608;29;20069;-94
2023/09/09 10:35:54;;;;;;;5.75;4.25;;;;;;;23.64;46.54;93697.38;4861858;24;20052;-93
2023/09/09 10:38:20;;;;;;;6.10;4.30;;;;;;;23.64;46.57;93700.13;4863634;29;20048;-95
2023/09/09 10:40:48;;;;;;;5.85;4.53;;;;;;;23.63;46.54;93702.13;4833822;29;20651;-94
2023/09/09 10:43:16;;;;;;;6.13;4.50;;;;;;;23.63;46.49;93704.91;4820980;29;20058;-93
2023/09/09 10:46:00;;;;;;;5.72;4.32;;;;;;;23.61;46.43;93707.47;4807227;29;20196;-93
2023/09/09 10:48:27;;;;;;;6.88;4.82;;;;;;;23.64;46.54;93698.09;4806101;29;20463;-95
2023/09/09 10:50:57;;;;;;;6.28;4.53;;;;;;;23.63;46.62;93704.91;4822606;23;20053;-94
2023/09/09 10:53:35;;;;;;;7.18;4.10;;;;;;;23.62;46.62;93699.91;4865325;29;20068;-93
2023/09/09 10:56:21;;;;;;;5.45;4.43;;;;;;;23.62;46.76;93695.13;4824141;29;20046;-94
2023/09/09 10:59:23;;;;;;;6.93;4.80;;;;;;;23.61;46.60;93693.66;4817828;29;20054;-94
2023/09/09 11:02:13;;;;;;;6.03;4.50;;;;;;;23.62;46.70;93694.41;4799007;29;20090;-93
2023/09/09 11:04:40;;;;;;;;;;;;;;;23.62;46.50;93692.38;4816027;29;20038;-94
2023/09/09 11:07:15;;;;;;;7.25;4.95;;;;;;;23.63;46.63;93687.59;4791405;29;19929;-94
2023/09/09 11:09:59;;;;;;;7.82;4.57;;;;;;;23.60;46.70;93683.19;4814920;29;20047;-95
2023/09/09 11:15:00;;;;;;;7.20;4.88;;;;;;;23.59;46.87;93687.97;4904404;23;20127;-94
2023/09/09 11:17:39;;;;;;;5.55;4.13;;;;;;;23.61;46.76;93692.91;4870070;29;20052;-95
2023/09/09 11:20:10;;;;;;;5.18;4.35;;;;;;;23.62;46.75;93684.09;4876182;29;20515;-94
2023/09/09 11:22:39;;;;;;;7.00;4.00;;;;;;;23.61;46.65;93690.91;4829640;29;20102;-93
2023/09/09 11:25:05;;;;;;;6.68;4.68;;;;;;;23.62;46.81;93683.34;4879108;23;20159;-93
2023/09/09 11:27:30;;;;;;;8.05;4.55;;;;;;;23.63;46.77;93693.13;4914730;24;20067;-94
2023/09/09 11:29:57;;;;;;;5.07;4.00;;;;;;;23.64;46.64;93694.59;4893980;29;20070;-95
2023/09/09 11:32:46;;;;;;;6.15;4.38;;;;;;;23.62;46.84;93686.84;4889589;29;20048;-93
2023/09/09 11:35:23;;;;;;;7.38;4.55;;;;;;;23.63;46.81;93695.88;4824370;29;20108;-94
2023/09/09 11:37:50;;;;;;;9.57;4.80;;;;;;;23.64;46.69;93695.34;4850191;29;20056;-93
2023/09/09 11:40:19;;;;;;;5.85;4.55;;;;;;;23.64;46.89;93691.84;4876301;29;20443;-95
2023/09/09 11:42:51;;;;;;;6.25;4.43;;;;;;;23.63;47.05;93691.09;4841894;29;20136;-95